Aviation Digital Data Service (ADDS)

Output produced by METARs form (1209 UTC 15 November 2018)
found at http://www.aviationweather.gov/metar/data/
 
KPAE 151135Z 1512/1612 15003KT P6SM BKN007 OVC012 
     FM152000 18006KT P6SM SCT015 BKN050 
     FM160400 17007KT P6SM VCSH OVC015 
     FM160700 17010KT P6SM -RA OVC015
       
TAF KPAM 151100Z 1511/1617 33009KT 9999 BKN008 OVC020 QNH3008INS 
     TEMPO 1511/1515 33012G18KT 
     BECMG 1514/1515 33012KT 9999 SKC QNH3010INS 
     TEMPO 1515/1518 33012G18KT 
     BECMG 1600/1601 01009KT 9999 SKC QNH3018INS TX12/1520Z TN06/1513Z
       
KPBF 151126Z 1512/1612 22004KT P6SM SKC
       
KPBG 151132Z 1512/1612 00000KT P6SM SCT250 
     FM160000 16006KT P6SM VCSH OVC060 
     FM160600 15006KT 1SM -SN OVC020
       
KPBI 151138Z 1512/1612 17008KT P6SM SCT025 SCT060 
     TEMPO 1512/1513 -SHRA SCT015 BKN025 
     FM151300 20006KT P6SM VCSH SCT025 SCT045 
     FM151900 31010KT P6SM VCSH SCT035 BKN060 
     FM160100 32006KT P6SM SCT025 BKN150
       
KPDK 151127Z 1512/1612 31005KT P6SM FEW006 OVC028 
     FM151700 27007KT 6SM BR BKN012 OVC025 
     FM152000 27012G23KT P6SM BKN015 
     FM152300 28012G22KT P6SM SCT020 
     FM160500 29011G19KT P6SM SCT150 
     FM161100 28007KT P6SM SCT200
       
KPDT 151120Z 1512/1612 VRB04KT P6SM SCT040 OVC060 
     FM151700 31005KT P6SM FEW007 SCT015 BKN250 
     FM160300 16005KT 5SM BR SCT010 BKN250 
     FM160800 VRB05KT P6SM BKN070 OVC250
       
KPDX 151140Z 1512/1612 00000KT 3SM BR SCT006 OVC025 
     TEMPO 1513/1517 BKN006 
     FM151900 VRB03KT P6SM SCT010 OVC025 
     FM152200 VRB04KT P6SM SCT025 
     FM160400 VRB03KT 4SM BR SCT007 BKN012
       
KPGA 151120Z 1512/1612 VRB04KT P6SM FEW250
       
KPGD 151120Z 1512/1612 34012G20KT P6SM VCSH SCT012 BKN025 
     TEMPO 1512/1514 BKN010 
     FM151400 34011KT P6SM SCT025 BKN080 
     FM151800 33012G18KT P6SM BKN025 
     FM152200 33011KT P6SM SCT025 BKN100 
     FM160100 34009KT P6SM SCT130
       
KPGV 151121Z 1512/1612 03008KT P6SM -RA BKN005 BKN015 OVC025 
     FM151500 09016KT 4SM -RA BR BKN007 OVC010 WS020/09040KT 
     FM152100 32007KT P6SM VCSH OVC015 
     FM160600 26011KT P6SM FEW250 AMD LTD TO CLD VIS AND WIND
       
KPHF 151141Z 1512/1612 06012G20KT P6SM -RA SCT025 OVC040 
     FM151400 07014G22KT 5SM -RA BKN015 OVC040 
     FM151600 07016G24KT 2SM RA BR OVC008 
     FM152200 06012G20KT 2SM -RA BR OVC008 
     FM160100 28010KT P6SM OVC006 
     FM160700 26014G22KT P6SM BKN025 
     FM160900 27014G22KT P6SM SCT250
       
KPHL 151126Z 1512/1618 05010KT P6SM OVC100 
     FM151300 06010KT P6SM OVC040 
     TEMPO 1515/1516 -SNPL OVC025 
     FM151600 06010KT 3SM -SNPL OVC015 
     FM151900 06014G24KT 2SM RA BR OVC006 
     FM160000 06018G30KT 4SM -RA BR OVC006 
     FM160700 02014G24KT 6SM -SHRA BR OVC006 
     FM160900 33014G24KT P6SM -SHRA BKN006 OVC025 
     FM161200 29016G26KT P6SM SCT035
       
KPHX 151121Z 1512/1618 08005KT P6SM SKC 
     FM152200 VRB04KT P6SM SCT250 
     TEMPO 1522/1602 25005KT 
     FM160900 09005KT P6SM BKN250
       
KPIA 151144Z 1512/1612 VRB06KT 1SM -SN BR BKN012 
     TEMPO 1512/1514 3/4SM -SN BR VV008 
     FM151900 VRB06KT P6SM VCSH BKN050 
     FM152100 23005KT P6SM SCT150
       
KPIB 151150Z 1512/1612 32008KT P6SM BKN015 
     FM151500 32008KT P6SM SKC
       
KPIE 151120Z 1512/1612 34011KT P6SM SCT025 BKN090 
     TEMPO 1512/1516 BKN025 
     FM151600 32014G22KT P6SM BKN025 
     FM152100 32013G20KT P6SM SCT025 BKN100 
     FM160100 33012KT P6SM SCT130 
     FM160800 36013KT P6SM SKC
       
KPIH 151120Z 1512/1612 15005KT P6SM SCT180 
     FM152100 27006KT P6SM FEW030 FEW150 
     FM160300 17006KT P6SM SCT140 
     FM160700 18005KT P6SM FEW025 BKN120
       
KPIR 151128Z 1512/1612 25009KT P6SM FEW250 WS020/31040KT 
     FM151500 29016G25KT P6SM SKC 
     FM160100 32008KT P6SM SCT200 
     FM160800 VRB03KT P6SM BKN150 
     FM161100 VRB04KT 4SM BR BKN070
       
KPIT 151136Z 1512/1618 09009KT P6SM -FZRAPL OVC060 
     FM151600 11011KT 3SM -FZRASNPL BR OVC015 
     FM151900 11010KT 1SM -RASN BR OVC007 
     FM160000 09008KT 3/4SM -SN BR OVC005 
     FM160600 26009KT 2SM -SN BR OVC009 
     FM161000 26011KT 4SM -SHSN OVC015 
     FM161500 25013G22KT P6SM VCSH OVC022
       
KPKB 151120Z 1512/1612 11007KT 5SM -RA OVC040 
     TEMPO 1512/1515 2SM -RA BR OVC025 
     FM151500 07008KT 2SM -RA BR OVC010 
     TEMPO 1515/1519 1SM -RA BR OVC005 
     FM151900 07006KT 4SM -RA BR OVC006 
     TEMPO 1519/1521 2SM -RA BR OVC002 
     FM152100 VRB03KT 4SM -RA BR OVC006 
     FM160000 06005KT 5SM -PLSNRA OVC006 
     FM160200 26004KT 6SM -SNRA OVC007 
     FM160400 26006KT P6SM -SN OVC008 
     FM160500 26009G17KT P6SM OVC013
       
KPMD 151123Z 1512/1612 VRB03KT P6SM SKC 
     FM151800 05008KT P6SM SCT250 
     FM152300 26006KT P6SM SCT250 
     FM160500 VRB03KT P6SM SKC
       
KPNA 151124Z 1512/1612 30008KT P6SM SCT035 SCT200 
     FM151800 30012G18KT P6SM SCT200 
     FM160100 30008KT P6SM FEW100 SCT150 AMD LTD TO CLD VIS AND WIND
       
KPNE 151126Z 1512/1612 05008KT P6SM BKN100 
     FM151300 06010KT P6SM OVC040 
     TEMPO 1515/1516 -SNPL OVC025 
     FM151600 07010KT 3SM -SNPL OVC015 
     FM151900 07014G24KT 2SM RA BR OVC006 
     FM160000 06016G28KT 4SM -RA BR OVC006 
     FM160700 01014G24KT 6SM -SHRA BR OVC006 
     FM160900 32014G24KT P6SM -SHRA BKN006 OVC025
       
KPNS 151128Z 1512/1612 31014KT P6SM BKN008 OVC012 
     FM151500 33014KT P6SM SKC 
     FM160300 33007KT P6SM SKC
       
TAF AMD KPOB 151040Z 1510/1616 05012G18KT 8000 -RA OVC008 WS018/09050KT 550107
QNH2989INS 
     TEMPO 1510/1516 05015G25KT 4800 RA OVC005 
     BECMG 1516/1517 34012G18KT 8000 -RA OVC010 QNH2985INS 
     BECMG 1521/1522 27009KT 9999 NSW OVC015 QNH2987INS 
     BECMG 1607/1608 25009KT 9999 SKC QNH2997INS TX09/1516Z TN02/1610Z
       
KPOU 151138Z 1512/1612 VRB03KT P6SM OVC250 
     FM151700 06006KT P6SM BKN040 OVC080 
     FM152000 05007KT 1 1/2SM -SN BKN015 OVC025 
     FM160100 03008KT 2SM -SNPL OVC007 
     FM160300 02010KT 3SM -FZRAPL OVC007 
     FM160700 03008KT 4SM -RA BR OVC007 
     FM161000 01008KT 3SM -RAPLSN OVC007
       
KPQI 151120Z 1512/1612 29009KT P6SM FEW250 
     FM152100 20003KT P6SM SCT150 
     FM160900 13004KT P6SM OVC090
       
KPRB 151123Z 1512/1612 VRB03KT P6SM SKC
       
KPRC 151120Z 1512/1612 VRB05KT P6SM FEW250
       
KPSC 151157Z 1512/1612 31003KT 5SM BR FEW014 BKN250 
     FM152000 VRB03KT 6SM BR FEW025 BKN100 
     FM160600 VRB03KT P6SM BKN100 OVC250
       
KPSF 151138Z 1512/1612 VRB03KT P6SM OVC250 
     FM151900 11006KT P6SM BKN040 OVC080 
     FM152200 10008KT 1 1/2SM -SN BKN015 OVC025 
     FM160200 09010KT 2SM -SNPL OVC007 
     FM160500 08010G18KT 3SM -FZRAPL OVC005 
     FM161000 04010G18KT 2SM -PLSN OVC007
       
KPSM 151131Z 1512/1612 29005KT P6SM BKN250 
     FM152300 11005KT P6SM BKN050 
     FM160200 08006KT 6SM -SN BKN025 
     FM160400 07009KT 4SM -SN BR OVC005
       
KPSP 151126Z 1512/1612 33005KT P6SM SKC 
     FM151900 12006KT P6SM SCT250 
     FM160200 33007KT P6SM BKN250
       
KPUB 151141Z 1512/1612 VRB05KT P6SM FEW250 
     FM152000 10008KT P6SM SCT250 
     FM160100 VRB05KT P6SM SCT250
       
KPUW 151130Z 1512/1612 VRB03KT P6SM OVC040 
     FM151600 11006KT P6SM OVC035 
     FM152100 15006KT P6SM BKN035
       
KPVD 151139Z 1512/1612 01006KT P6SM BKN250 
     FM151700 07005KT P6SM BKN200 
     FM152100 08007KT P6SM OVC030 
     FM152200 08007KT P6SM -SNPL OVC020 
     FM160000 07008KT 4SM -SNPL BR OVC015 
     FM160200 07010G17KT 3SM -RAPL BR OVC010 
     FM160500 07014G24KT 2SM -RAPL BR OVC008 
     FM160700 07015G27KT 2SM -RA BR OVC008
       
KPVU 151120Z 1512/1612 VRB04KT P6SM SCT200 
     FM152200 28006KT P6SM SKC
       
KPWM 151131Z 1512/1612 32002KT P6SM BKN250 
     FM151700 17007KT P6SM BKN250 
     FM160300 06008KT 5SM -SN OVC025 
     FM160500 05012KT 4SM -SN OVC007
       
KPWT 151135Z 1512/1612 20003KT 5SM BR OVC003 
     TEMPO 1512/1514 2SM BR OVC002 
     FM152000 20005KT P6SM OVC010 
     FM160500 19004KT P6SM VCSH OVC007